Roosevelt, Minnesota
Current Conditions -  °F | °C
As of 9:54 PM on Saturday 20 Dec 2014 (Local Time) from KRRT Reporting Station
Haze Haze  
Wind Chill: 23°   Ceiling: 700
Heat Index: 30°   Visibility: 5mi
Dew Point: 27°   Wind: 7mph
Humidity: 86%   Direction: 170°S
Pressure: 29.91"   Gusts: NA
Location:  48.8°N, 95.1°W
Report Text: KRRT 210354Z AUTO 17006KT 5SM BR OVC007 M01/M03 A2991 RMK AO2
Loading
Personal Weather Stations






























Interactive Weather Map New forecast layout! Learn more

10-Day Weather Forecast

Advertisements
Track Severe Weather on mobile